Latest Weather Observations for Kempsey Airport

IDN60801

Issued at 6:22 am EST Monday 28 September 2020 (issued every 10 minutes, with the page automatically refreshed every 10 minutes)

About weather observations | Map of weather stations | Latest weather observations for NSW | Other Formats
Station Details ID: 059007 Name: KEMPSEY AIRPORT AWS Lat: -31.07 Lon: 152.77 Height: 13.0 m
Data from the previous 72 hours. | See also: Recent months at Kempsey Airport
Date/Time
EST
Temp
°C
App
Temp
°C
Dew
Point
°C
Rel
Hum
%
Delta-T
°C
Wind Press
QNH
hPa
Press
MSL
hPa
Rain since
9am
mm
Dir  Spd
km/h
Gust
km/h
Spd
kts
Gust
kts
28/06:00am 7.2 5.8 7.1 99 0.0 WNW 4 9 2 5 1025.9 1025.9 0.0
28/05:30am 5.8 3.5 5.5 98 0.1 WSW 7 9 4 5 1025.5 1025.5 0.0
28/05:00am 6.1 4.7 5.5 96 0.3 W 2 7 1 4 1025.1 1025.1 0.0
28/04:30am 7.0 5.4 6.4 96 0.3 NW 4 6 2 3 1024.8 1024.8 0.0
28/04:00am 6.7 4.7 6.3 97 0.2 WNW 6 7 3 4 1024.7 1024.7 0.0
28/03:30am 6.5 4.4 5.8 95 0.3 W 6 7 3 4 1024.6 1024.6 0.0
28/03:00am 6.8 4.7 5.7 93 0.5 SW 6 7 3 4 1024.4 1024.4 0.0
28/02:30am 7.6 6.4 6.4 92 0.5 NW 2 6 1 3 1024.4 1024.4 0.0
28/02:00am 7.9 7.1 6.7 92 0.5 CALM 0 0 0 0 1024.4 1024.4 0.0
28/01:30am 8.6 7.1 6.6 87 0.9 ESE 4 7 2 4 1024.6 1024.6 0.0
28/01:00am 9.7 9.0 7.1 84 1.2 CALM 0 0 0 0 1024.7 1024.7 0.0
28/12:30am 9.8 9.1 7.1 83 1.3 CALM 0 0 0 0 1024.8 1024.8 0.0
28/12:00am 10.2 9.6 7.3 82 1.4 CALM 0 0 0 0 1024.9 1024.9 0.0
 
Date/Time
EST
Temp
°C
App
Temp
°C
Dew
Point
°C
Rel
Hum
%
Delta-T
°C
Wind Press
QNH
hPa
Press
MSL
hPa
Rain since
9am
mm
Dir  Spd
km/h
Gust
km/h
Spd
kts
Gust
kts
27/11:30pm 11.0 8.9 6.7 75 2.0 W 7 9 4 5 1024.8 1024.8 0.0
27/11:00pm 12.0 11.6 8.1 77 1.9 CALM 0 0 0 0 1025.0 1025.0 0.0
27/10:30pm 12.1 11.7 8.2 77 1.9 CALM 0 6 0 3 1025.0 1025.0 0.0
27/10:00pm 12.3 10.5 7.8 74 2.2 WSW 7 9 4 5 1025.0 1025.0 0.0
27/09:30pm 12.2 10.1 8.3 77 1.9 WSW 9 9 5 5 1024.8 1024.8 0.0
27/09:00pm 12.4 10.6 8.1 75 2.1 WSW 7 9 4 5 1024.8 1024.8 0.0
27/08:30pm 12.3 11.8 7.8 74 2.2 CALM 0 0 0 0 1024.6 1024.6 0.0
27/08:00pm 12.7 10.9 7.0 68 2.7 WNW 6 7 3 4 1024.5 1024.5 0.0
27/07:30pm 11.7 11.2 8.0 78 1.8 CALM 0 0 0 0 1024.1 1024.1 0.0
27/07:00pm 10.8 8.1 5.6 70 2.4 W 9 9 5 5 1023.8 1023.8 0.0
27/06:30pm 11.8 9.7 5.9 67 2.8 NW 6 7 3 4 1023.3 1023.3 0.0
27/06:00pm 13.4 10.5 4.6 55 4.0 S 9 13 5 7 1022.6 1022.6 0.0
27/05:30pm 15.1 11.0 4.2 48 5.0 SSE 15 20 8 11 1022.0 1022.0 0.0
27/05:00pm 16.2 11.1 4.3 45 5.5 SSE 20 30 11 16 1021.3 1021.3 0.0
27/04:30pm 17.2 11.9 5.2 45 5.8 SE 22 33 12 18 1020.7 1020.7 0.0
27/04:00pm 18.0 13.1 4.9 42 6.3 SE 20 30 11 16 1020.4 1020.4 0.0
27/03:30pm 18.6 13.3 4.8 40 6.6 ESE 22 32 12 17 1020.0 1020.0 0.0
27/03:00pm 18.9 14.0 5.0 40 6.7 E 20 28 11 15 1019.9 1019.9 0.0
27/02:30pm 19.1 14.1 4.5 38 7.0 E 20 28 11 15 1019.7 1019.7 0.0
27/02:00pm 19.2 13.4 4.2 37 7.1 E 24 32 13 17 1019.5 1019.5 0.0
27/01:30pm 19.6 14.6 3.7 35 7.5 E 19 28 10 15 1019.5 1019.5 0.0
27/01:00pm 20.6 16.3 1.0 27 8.8 ENE 13 19 7 10 1019.6 1019.6 0.0
27/12:30pm 20.1 16.5 0.5 27 8.8 S 9 13 5 7 1020.1 1020.1 0.0
27/12:00pm 19.4 16.2 0.9 29 8.2 SE 7 13 4 7 1020.4 1020.4 0.0
27/11:30am 18.9 15.7 1.0 30 8.0 SSE 7 15 4 8 1020.8 1020.8 0.0
27/11:00am 19.1 15.3 2.0 32 7.8 S 11 17 6 9 1021.1 1021.1 0.0
27/10:30am 18.2 14.6 0.8 31 7.7 WSW 9 20 5 11 1021.4 1021.4 0.0
27/10:00am 17.5 12.0 0.6 32 7.4 WSW 19 28 10 15 1021.7 1021.7 0.0
27/09:30am 17.0 11.9 0.6 33 7.1 SW 17 26 9 14 1021.7 1021.7 0.0
27/09:00am 16.4 12.1 0.9 35 6.7 W 13 24 7 13 1021.7 1021.7 0.0
27/08:30am 14.9 11.1 1.8 41 5.7 WNW 11 19 6 10 1021.7 1021.7 0.0
27/08:00am 13.5 9.8 4.6 55 4.1 NW 13 19 7 10 1021.5 1021.5 0.0
27/07:30am 11.3 8.6 5.8 69 2.6 W 9 13 5 7 1021.4 1021.4 0.0
27/07:00am 7.3 4.6 3.9 79 1.5 WSW 7 9 4 5 1021.2 1021.2 0.0
27/06:30am 4.4 2.3 4.1 98 0.1 NNW 4 11 2 6 1020.9 1020.9 0.0
27/06:00am 1.5 -0.3 0.9 96 0.2 CALM 0 0 0 0 1020.8 1020.8 0.0
27/05:30am 1.0 -1.0 0.1 94 0.3 CALM 0 0 0 0 1020.3 1020.3 0.0
27/05:00am 1.7 -0.6 0.7 93 0.4 W 2 9 1 5 1019.9 1019.9 0.0
27/04:30am 2.2 0.4 1.3 94 0.3 CALM 0 0 0 0 1019.5 1019.5 0.0
27/04:00am 2.9 1.2 1.9 93 0.4 CALM 0 6 0 3 1019.0 1019.0 0.0
27/03:30am 2.8 0.6 0.9 87 0.7 WNW 2 6 1 3 1019.0 1019.0 0.0
27/03:00am 3.5 1.4 1.5 87 0.8 S 2 6 1 3 1018.8 1018.8 0.0
27/02:30am 4.1 1.6 1.8 85 0.9 W 4 9 2 5 1018.6 1018.6 0.0
27/02:00am 3.8 -0.3 2.0 88 0.7 WSW 13 15 7 8 1018.5 1018.5 0.0
27/01:30am 4.8 2.7 2.0 82 1.1 NW 2 7 1 4 1018.7 1018.7 0.0
27/01:00am 4.7 3.0 1.9 82 1.1 CALM 0 0 0 0 1018.8 1018.8 0.0
27/12:30am 5.3 3.4 2.8 84 1.0 W 2 9 1 5 1018.9 1018.9 0.0
27/12:00am 5.0 2.9 1.7 79 1.3 WSW 2 9 1 5 1018.7 1018.7 0.0
 
Date/Time
EST
Temp
°C
App
Temp
°C
Dew
Point
°C
Rel
Hum
%
Delta-T
°C
Wind Press
QNH
hPa
Press
MSL
hPa
Rain since
9am
mm
Dir  Spd
km/h
Gust
km/h
Spd
kts
Gust
kts
26/11:30pm 6.1 4.3 1.4 72 1.9 CALM 0 0 0 0 1018.5 1018.5 0.0
26/11:00pm 7.7 4.9 3.2 73 1.9 E 7 13 4 7 1018.2 1018.2 0.0
26/10:30pm 6.8 3.4 1.9 71 2.0 NW 9 15 5 8 1017.9 1017.9 0.0
26/10:00pm 7.7 4.3 2.0 67 2.3 NW 9 11 5 6 1017.9 1017.9 0.0
26/09:30pm 10.3 6.4 0.9 52 3.9 W 11 13 6 7 1017.7 1017.7 0.0
26/09:00pm 10.9 7.6 0.3 48 4.3 NW 7 13 4 7 1017.4 1017.4 0.0
26/08:30pm 12.0 8.2 -0.5 42 5.1 SSE 9 15 5 8 1017.3 1017.3 0.0
26/08:00pm 12.6 8.8 -1.0 39 5.5 W 9 17 5 9 1016.7 1016.7 0.0
26/07:30pm 14.4 9.3 -1.6 33 6.5 WNW 15 24 8 13 1015.9 1015.9 0.0
26/07:00pm 11.4 6.6 0.2 46 4.6 W 15 19 8 10 1015.4 1015.4 0.0
26/06:30pm 12.8 7.8 -1.1 38 5.6 WSW 15 17 8 9 1015.0 1015.0 0.0
26/06:00pm 15.7 10.9 -2.3 29 7.3 W 13 17 7 9 1014.3 1014.3 0.0
26/05:30pm 17.5 11.4 -2.7 25 8.2 W 20 30 11 16 1013.5 1013.5 0.0
26/05:00pm 18.7 12.5 -2.8 23 8.9 W 20 32 11 17 1012.9 1012.9 0.0
26/04:30pm 19.5 12.1 -3.4 21 9.4 W 26 37 14 20 1012.2 1012.2 0.0
26/04:00pm 20.0 12.9 -4.3 19 9.8 WNW 24 32 13 17 1011.6 1011.6 0.0
26/03:30pm 20.1 12.3 -4.2 19 9.9 W 28 41 15 22 1011.3 1011.3 0.0
26/03:00pm 20.1 13.0 -4.2 19 9.9 W 24 35 13 19 1011.0 1011.0 0.0
26/02:30pm 20.3 13.3 -3.4 20 9.8 W 24 39 13 21 1011.0 1011.0 0.0
26/02:00pm 19.8 11.1 -3.8 20 9.6 W 33 52 18 28 1011.2 1011.2 0.0
26/01:46pm 19.5 10.7 -4.0 20 9.5 W 33 52 18 28 1011.3 1011.3 0.0
26/01:30pm 19.2 10.2 -3.0 22 9.2 W 35 50 19 27 1011.4 1011.4 0.0
26/01:25pm 19.6 10.7 -2.1 23 9.2 W 35 50 19 27 1011.5 1011.5 0.0
26/01:21pm 19.4 10.8 -2.8 22 9.2 W 33 52 18 28 1011.4 1011.4 0.0
26/01:17pm 19.2 9.4 -3.0 22 9.2 W 39 54 21 29 1011.4 1011.4 0.0
26/01:00pm 19.4 8.1 -1.7 24 9.0 WSW 48 72 26 39 1011.7 1011.7 0.0
26/12:43pm 19.7 10.9 -0.9 25 8.9 WSW 35 56 19 30 1011.6 1011.6 0.0
26/12:32pm 19.4 10.1 -2.2 23 9.1 W 37 57 20 31 1011.3 1011.3 0.0
26/12:30pm 19.7 11.3 -1.4 24 9.0 W 33 46 18 25 1011.4 1011.4 0.0
26/12:06pm 19.6 10.9 -3.3 21 9.4 W 33 52 18 28 1011.5 1011.5 0.0
26/12:00pm 19.6 11.1 -2.1 23 9.2 W 33 50 18 27 1011.5 1011.5 0.0
26/11:30am 19.0 9.9 -3.2 22 9.1 W 35 54 19 29 1011.4 1011.4 0.0
26/11:17am 19.2 10.9 -1.8 24 8.9 WNW 32 50 17 27 1011.4 1011.4 0.0
26/11:00am 18.8 10.8 -2.7 23 8.9 W 30 43 16 23 1011.5 1011.5 0.0
26/10:46am 18.3 9.8 -3.2 23 8.8 WNW 32 50 17 27 1011.6 1011.6 0.0
26/10:30am 17.9 9.4 -3.5 23 8.6 WNW 32 46 17 25 1011.7 1011.7 0.0
26/10:00am 17.5 9.5 -2.7 25 8.3 WNW 30 46 16 25 1011.7 1011.7 0.0
26/09:37am 17.0 9.4 -2.1 27 7.9 W 28 46 15 25 1012.0 1012.0 0.0
26/09:30am 16.9 9.7 -1.7 28 7.7 W 26 43 14 23 1012.0 1012.0 0.0
26/09:00am 15.9 8.3 -2.1 29 7.3 WNW 28 41 15 22 1012.0 1012.0 0.0
26/08:30am 15.3 8.5 -2.2 30 7.1 WNW 24 35 13 19 1012.1 1012.1 0.0
26/08:00am 14.7 8.0 -1.4 33 6.6 WNW 24 39 13 21 1011.9 1011.9 0.0
26/07:30am 13.9 8.7 -0.2 38 5.9 WNW 17 24 9 13 1011.9 1011.9 0.0
26/07:00am 13.0 7.8 0.4 42 5.3 WNW 17 26 9 14 1011.8 1011.8 0.0
26/06:30am 11.4 7.8 0.8 48 4.4 WNW 9 13 5 7 1011.3 1011.3 0.0
26/06:00am 9.6 5.2 0.2 52 3.8 WNW 13 17 7 9 1010.8 1010.8 0.0
26/05:30am 9.4 4.9 -0.2 51 3.8 WNW 13 17 7 9 1010.4 1010.4 0.0
26/05:00am 11.2 5.9 -0.6 44 4.7 W 17 24 9 13 1009.9 1009.9 0.0
26/04:33am 13.1 8.8 3.2 51 4.4 WNW 15 20 8 11 1009.6 1009.6 0.0
26/04:30am 8.0 2.9 -1.8 50 3.7 WNW 15 20 8 11 1009.6 1009.6 0.0
26/04:00am 9.5 5.2 1.2 56 3.4 WNW 13 22 7 12 1009.2 1009.2 0.0
26/03:30am 9.7 5.6 0.1 51 3.9 W 11 24 6 13 1009.0 1009.0 0.0
26/03:00am 10.2 6.4 -0.6 47 4.3 WNW 9 13 5 7 1008.6 1008.6 0.0
26/02:30am 11.3 7.4 -1.5 41 5.0 WNW 9 15 5 8 1008.5 1008.5 0.0
26/02:00am 10.8 7.1 -0.3 46 4.5 NW 9 28 5 15 1008.6 1008.6 0.0
26/01:30am 13.0 8.7 -1.3 37 5.8 WNW 11 19 6 10 1008.4 1008.4 0.0
26/01:00am 12.1 8.3 2.0 50 4.3 NW 11 17 6 9 1008.5 1008.5 0.0
26/12:30am 14.0 9.7 1.0 41 5.6 W 13 19 7 10 1008.1 1008.1 0.0
26/12:00am 14.5 9.3 2.4 44 5.4 WSW 19 26 10 14 1007.9 1007.9 0.0
 
Date/Time
EST
Temp
°C
App
Temp
°C
Dew
Point
°C
Rel
Hum
%
Delta-T
°C
Wind Press
QNH
hPa
Press
MSL
hPa
Rain since
9am
mm
Dir  Spd
km/h
Gust
km/h
Spd
kts
Gust
kts
25/11:30pm 16.0 9.6 3.4 43 5.8 WSW 26 33 14 18 1007.3 1007.3 0.0
25/11:00pm 17.0 10.0 4.0 42 6.1 WSW 30 43 16 23 1006.9 1006.9 0.0
25/10:31pm 19.0 9.5 4.0 37 7.1 W 43 61 23 33 1005.9 1005.9 0.0
25/10:30pm 19.1 9.4 4.1 37 7.1 W 44 61 24 33 1005.8 1005.8 0.0
25/10:16pm 21.4 14.4 2.2 28 9.0 W 28 56 15 30 1004.6 1004.5 0.0
25/10:15pm 21.7 15.4 1.4 26 9.3 W 24 44 13 24 1004.5 1004.4 0.0
25/10:00pm 22.1 17.1 -1.2 21 10.3 NW 15 26 8 14 1003.7 1003.6 0.0
25/09:30pm 23.9 17.1 -1.8 18 11.3 NW 24 35 13 19 1003.3 1003.2 0.0
25/09:00pm 23.7 17.3 -2.0 18 11.3 NNW 22 46 12 25 1003.2 1003.1 0.0
25/08:30pm 23.1 18.0 -1.8 19 10.9 WNW 15 26 8 14 1003.3 1003.2 0.0
25/08:00pm 24.6 18.5 -3.7 15 12.2 NNW 19 28 10 15 1002.8 1002.7 0.0
25/07:30pm 24.4 18.8 -3.0 16 11.9 NNW 17 24 9 13 1002.5 1002.4 0.0
25/07:00pm 24.9 18.8 -3.5 15 12.3 NW 19 32 10 17 1002.3 1002.2 0.0
25/06:30pm 25.0 18.8 -3.4 15 12.3 NW 20 35 11 19 1001.9 1001.8 0.0
25/06:00pm 25.6 20.0 -2.9 15 12.5 NNW 17 41 9 22 1001.7 1001.6 0.0
25/05:30pm 25.8 20.2 -2.8 15 12.6 NW 17 26 9 14 1001.3 1001.2 0.0
25/05:00pm 27.1 19.3 -3.7 13 13.5 NNW 28 37 15 20 1001.2 1001.1 0.0
25/04:34pm 27.4 19.8 -2.4 14 13.4 NW 28 46 15 25 1001.1 1001.0 0.0
25/04:30pm 27.4 21.0 -1.5 15 13.2 WNW 22 46 12 25 1001.3 1001.2 0.0
25/04:00pm 24.5 22.0 13.4 50 6.5 NE 19 26 10 14 1001.6 1001.5 0.0
25/03:30pm 24.9 22.2 11.8 44 7.4 NNE 17 26 9 14 1002.0 1001.9 0.0
25/03:00pm 25.1 22.8 13.0 47 7.1 NNE 17 24 9 13 1002.3 1002.2 0.0
25/02:30pm 25.6 22.7 12.4 43 7.6 NE 19 28 10 15 1002.7 1002.6 0.0
25/02:00pm 25.9 22.9 10.5 38 8.6 NE 17 26 9 14 1003.6 1003.5 0.0
25/01:30pm 25.3 21.2 8.7 35 9.0 NE 20 30 11 16 1004.2 1004.1 0.0
25/01:00pm 26.5 22.7 6.0 27 10.7 NE 15 24 8 13 1004.9 1004.9 0.0
25/12:30pm 25.0 20.0 3.6 25 10.5 NE 19 28 10 15 1005.9 1005.9 0.0
25/12:00pm 25.3 20.4 5.0 27 10.3 NNE 20 30 11 16 1006.9 1006.9 0.0
25/11:30am 24.8 20.0 5.6 29 9.8 NE 20 32 11 17 1007.8 1007.8 0.0
25/11:00am 24.2 20.0 5.5 30 9.5 N 17 28 9 15 1008.8 1008.8 0.0
25/10:30am 23.0 17.8 3.5 28 9.4 NNE 20 28 11 15 1009.5 1009.5 0.0
25/10:00am 22.3 18.6 6.1 35 8.2 N 15 28 8 15 1010.3 1010.3 0.0
25/09:30am 20.3 16.7 5.1 37 7.4 N 13 17 7 9 1011.1 1011.1 0.0
25/09:00am 18.9 17.4 6.7 45 6.1 N 4 9 2 5 1011.8 1011.8 0.0
25/08:30am 16.5 16.3 9.2 62 3.8 CALM 0 0 0 0 1012.3 1012.3 0.0
25/08:00am 13.2 12.2 8.9 75 2.2 NW 4 7 2 4 1012.5 1012.5 0.0
25/07:30am 11.1 9.3 7.8 80 1.6 W 7 11 4 6 1012.8 1012.8 0.0
25/07:00am 9.0 6.9 6.8 86 1.0 W 7 13 4 7 1012.9 1012.9 0.0
25/06:30am 7.3 5.3 7.2 99 0.0 WSW 7 11 4 6 1012.8 1012.8 0.0

Other formats

Comma delimited format used in spreadsheet applications
http://www.bom.gov.au/fwo/IDN60801/IDN60801.94785.axf

JavaScript Object Notation format (JSON) in row-major order
http://www.bom.gov.au/fwo/IDN60801/IDN60801.94785.json

Data quality

Most of these data are generated automatically and are frequently updated. Quality checks on data are not normally performed. It is possible for incorrect values to appear. Refer to information at About Latest Weather Observations and please check the disclaimer before using these data.